Time,TemperatureF,DewpointF,PressureIn,WindDirection,WindDirectionDegrees,WindSpeedMPH,WindSpeedGustMPH,Humidity,HourlyPrecipIn,Conditions,Clouds,dailyrainin,SoftwareType,DateUTC
2015-04-25 00:01:00,53.9,26.2,29.96,ENE,75,2.3,2.3,34,0.00,BKN,,0.00,WeatherDisplay:10.37,2015-04-25 04:01:00,
2015-04-25 00:06:00,54.0,27.0,29.95,ENE,65,2.3,2.3,35,0.00,BKN,,0.00,WeatherDisplay:10.37,2015-04-25 04:06:00,
2015-04-25 00:11:00,54.0,27.0,29.95,NNE,17,1.2,1.2,35,0.00,BKN,,0.00,WeatherDisplay:10.37,2015-04-25 04:11:00,
2015-04-25 00:16:00,54.2,27.1,29.96,NE,47,0.0,0.0,35,0.00,BKN,,0.00,WeatherDisplay:10.37,2015-04-25 04:16:00,
2015-04-25 00:21:00,54.2,27.1,29.96,NE,38,1.4,1.4,35,0.00,BKN,,0.00,WeatherDisplay:10.37,2015-04-25 04:21:00,
2015-04-25 00:26:00,53.9,27.6,29.96,NNE,16,0.0,0.0,36,0.00,BKN,,0.00,WeatherDisplay:10.37,2015-04-25 04:26:00,
2015-04-25 00:31:00,53.8,29.4,29.96,NE,34,2.3,2.3,39,0.00,BKN,,0.00,WeatherDisplay:10.37,2015-04-25 04:31:00,
2015-04-25 00:36:00,53.4,30.3,29.96,NE,34,0.0,0.0,41,0.00,BKN,,0.00,WeatherDisplay:10.37,2015-04-25 04:36:00,
2015-04-25 00:41:00,53.0,30.5,29.96,NE,34,0.0,0.0,42,0.00,BKN,,0.00,WeatherDisplay:10.37,2015-04-25 04:41:00,
2015-04-25 00:46:00,52.7,29.7,29.95,NE,34,0.0,0.0,41,0.00,BKN,,0.00,WeatherDisplay:10.37,2015-04-25 04:46:00,
2015-04-25 00:51:00,52.5,29.5,29.95,NE,34,0.0,0.0,41,0.00,BKN,,0.00,WeatherDisplay:10.37,2015-04-25 04:51:00,
2015-04-25 00:56:00,52.6,30.2,29.95,NE,34,0.0,0.0,42,0.00,BKN,,0.00,WeatherDisplay:10.37,2015-04-25 04:56:00,
2015-04-25 01:01:00,52.5,30.1,29.95,NE,34,0.0,0.0,42,0.00,BKN,,0.00,WeatherDisplay:10.37,2015-04-25 05:01:00,
2015-04-25 01:06:00,52.3,29.9,29.95,NE,34,0.0,0.0,42,0.00,BKN,,0.00,WeatherDisplay:10.37,2015-04-25 05:06:00,
2015-04-25 01:11:00,52.3,30.5,29.95,NNE,14,0.7,0.7,43,0.00,BKN,,0.00,WeatherDisplay:10.37,2015-04-25 05:11:00,
2015-04-25 01:16:00,52.1,30.3,29.95,NE,37,0.0,0.0,43,0.00,BKN,,0.00,WeatherDisplay:10.37,2015-04-25 05:16:00,
2015-04-25 01:21:00,51.9,30.1,29.95,NE,37,0.0,0.0,43,0.00,BKN,,0.00,WeatherDisplay:10.37,2015-04-25 05:21:00,
2015-04-25 01:26:00,51.8,30.6,29.95,NE,37,0.0,0.0,44,0.00,BKN,,0.00,WeatherDisplay:10.37,2015-04-25 05:26:00,
2015-04-25 01:31:00,51.6,30.4,29.95,NE,37,0.0,0.0,44,0.00,BKN,,0.00,WeatherDisplay:10.37,2015-04-25 05:31:00,
2015-04-25 01:36:00,51.6,30.4,29.95,NE,37,0.0,0.0,44,0.00,BKN,,0.00,WeatherDisplay:10.37,2015-04-25 05:36:00,
2015-04-25 01:41:00,51.6,31.0,29.95,NE,37,0.0,0.0,45,0.00,BKN,,0.00,WeatherDisplay:10.37,2015-04-25 05:41:00,
2015-04-25 01:46:00,51.5,30.9,29.95,NE,37,0.0,0.0,45,0.00,BKN,,0.00,WeatherDisplay:10.37,2015-04-25 05:46:00,
2015-04-25 01:51:00,51.5,30.9,29.95,NE,37,0.0,0.0,45,0.00,BKN,,0.00,WeatherDisplay:10.37,2015-04-25 05:51:00,
2015-04-25 01:56:00,51.3,31.2,29.95,NE,37,0.0,0.0,46,0.00,BKN,,0.00,WeatherDisplay:10.37,2015-04-25 05:56:00,
2015-04-25 02:01:00,51.1,31.1,29.95,NE,37,0.0,0.0,46,0.00,BKN,,0.00,WeatherDisplay:10.37,2015-04-25 06:01:00,
2015-04-25 02:06:00,51.0,31.5,29.95,NE,37,0.0,0.0,47,0.00,BKN,,0.00,WeatherDisplay:10.37,2015-04-25 06:06:00,
2015-04-25 02:11:00,51.1,31.1,29.95,NE,37,0.0,0.0,46,0.00,BKN,,0.00,WeatherDisplay:10.37,2015-04-25 06:11:00,
2015-04-25 02:16:00,51.2,30.6,29.95,NE,37,0.0,0.0,45,0.00,BKN,,0.00,WeatherDisplay:10.37,2015-04-25 06:16:00,
2015-04-25 02:21:00,51.3,31.2,29.94,NE,37,0.0,0.0,46,0.00,BKN,,0.00,WeatherDisplay:10.37,2015-04-25 06:21:00,
2015-04-25 02:31:00,51.1,31.1,29.94,NE,37,0.0,0.0,46,0.00,BKN,,0.00,WeatherDisplay:10.37,2015-04-25 06:31:00,
2015-04-25 02:36:00,51.1,30.5,29.94,NE,37,0.0,0.0,45,0.00,BKN,,0.00,WeatherDisplay:10.37,2015-04-25 06:36:00,
2015-04-25 02:41:00,50.9,30.3,29.94,SSE,164,2.6,2.6,45,0.00,BKN,,0.00,WeatherDisplay:10.37,2015-04-25 06:41:00,
2015-04-25 02:46:00,50.7,30.1,29.94,ESE,123,0.0,0.0,45,0.00,BKN,,0.00,WeatherDisplay:10.37,2015-04-25 06:46:00,
2015-04-25 02:51:00,50.6,30.1,29.94,SSE,158,4.6,4.6,45,0.00,BKN,,0.00,WeatherDisplay:10.37,2015-04-25 06:51:00,
2015-04-25 02:56:00,50.5,30.5,29.94,SE,145,1.2,0.0,46,0.00,BKN,,0.00,WeatherDisplay:10.37,2015-04-25 06:56:00,
2015-04-25 03:01:00,50.3,29.8,29.94,SE,134,0.5,0.5,45,0.00,BKN,,0.00,WeatherDisplay:10.37,2015-04-25 07:01:00,
2015-04-25 03:06:00,50.4,29.9,29.93,SSE,154,0.0,0.0,45,0.00,BKN,,0.00,WeatherDisplay:10.37,2015-04-25 07:06:00,
2015-04-25 03:11:00,50.5,29.4,29.93,SSE,154,0.0,0.0,44,0.00,BKN,,0.00,WeatherDisplay:10.37,2015-04-25 07:11:00,
2015-04-25 03:16:00,50.7,29.0,29.93,SSE,154,0.0,0.0,43,0.00,BKN,,0.00,WeatherDisplay:10.37,2015-04-25 07:16:00,
2015-04-25 03:21:00,50.9,29.2,29.93,SSE,154,0.0,0.0,43,0.00,BKN,,0.00,WeatherDisplay:10.37,2015-04-25 07:21:00,
2015-04-25 03:27:00,51.0,29.3,29.93,SSE,154,0.0,0.0,43,0.00,BKN,,0.00,WeatherDisplay:10.37,2015-04-25 07:27:00,
2015-04-25 03:32:00,51.1,30.0,29.93,SSE,154,0.0,0.0,44,0.00,BKN,,0.00,WeatherDisplay:10.37,2015-04-25 07:32:00,
2015-04-25 03:37:00,51.2,30.0,29.94,West,260,0.0,0.0,44,0.00,BKN,,0.00,WeatherDisplay:10.37,2015-04-25 07:37:00,
2015-04-25 03:42:00,51.1,30.0,29.94,West,260,0.0,0.0,44,0.00,BKN,,0.00,WeatherDisplay:10.37,2015-04-25 07:42:00,
2015-04-25 03:47:00,51.3,30.1,29.94,West,260,0.0,0.0,44,0.00,BKN,,0.00,WeatherDisplay:10.37,2015-04-25 07:47:00,
2015-04-25 03:52:00,51.3,30.7,29.93,West,260,0.0,0.0,45,0.00,BKN,,0.00,WeatherDisplay:10.37,2015-04-25 07:52:00,
2015-04-25 03:57:00,51.2,30.6,29.93,NE,42,1.2,0.0,45,0.00,BKN,,0.00,WeatherDisplay:10.37,2015-04-25 07:57:00,
2015-04-25 04:02:00,51.2,31.1,29.94,North,356,0.0,0.0,46,0.00,OVC,,0.00,WeatherDisplay:10.37,2015-04-25 08:02:00,
2015-04-25 04:07:00,51.2,30.6,29.93,North,356,0.0,0.0,45,0.00,OVC,,0.00,WeatherDisplay:10.37,2015-04-25 08:07:00,
2015-04-25 04:12:00,51.2,30.6,29.93,North,356,0.0,0.0,45,0.00,OVC,,0.00,WeatherDisplay:10.37,2015-04-25 08:12:00,
2015-04-25 04:17:00,51.2,31.1,29.93,North,356,0.0,0.0,46,0.00,OVC,,0.00,WeatherDisplay:10.37,2015-04-25 08:17:00,
2015-04-25 04:22:00,51.0,31.0,29.93,North,356,0.0,0.0,46,0.00,OVC,,0.00,WeatherDisplay:10.37,2015-04-25 08:22:00,
2015-04-25 04:27:00,51.0,31.5,29.93,North,356,0.0,0.0,47,0.00,OVC,,0.00,WeatherDisplay:10.37,2015-04-25 08:27:00,
2015-04-25 04:32:00,50.8,30.8,29.93,North,356,0.0,0.0,46,0.00,OVC,,0.00,WeatherDisplay:10.37,2015-04-25 08:32:00,
2015-04-25 04:37:00,50.8,30.8,29.93,North,356,0.0,0.0,46,0.00,OVC,,0.00,WeatherDisplay:10.37,2015-04-25 08:37:00,
2015-04-25 04:42:00,50.8,30.2,29.93,North,356,0.0,0.0,45,0.00,OVC,,0.00,WeatherDisplay:10.37,2015-04-25 08:42:00,
2015-04-25 04:47:00,50.8,30.8,29.93,North,356,0.0,0.0,46,0.00,OVC,,0.00,WeatherDisplay:10.37,2015-04-25 08:47:00,
2015-04-25 04:52:00,50.8,30.8,29.93,North,356,0.0,0.0,46,0.00,OVC,,0.00,WeatherDisplay:10.37,2015-04-25 08:52:00,
2015-04-25 04:57:00,50.7,30.7,29.93,North,356,0.0,0.0,46,0.00,OVC,,0.00,WeatherDisplay:10.37,2015-04-25 08:57:00,
2015-04-25 05:02:00,50.7,30.1,29.93,North,356,0.0,0.0,45,0.00,OVC,,0.00,WeatherDisplay:10.37,2015-04-25 09:02:00,
2015-04-25 05:07:00,50.8,29.7,29.93,North,356,0.0,0.0,44,0.00,OVC,,0.00,WeatherDisplay:10.37,2015-04-25 09:07:00,
2015-04-25 05:12:00,50.8,29.1,29.93,North,356,0.0,0.0,43,0.00,OVC,,0.00,WeatherDisplay:10.37,2015-04-25 09:12:00,
2015-04-25 05:17:00,50.9,29.8,29.94,West,267,0.0,0.0,44,0.00,OVC,,0.00,WeatherDisplay:10.37,2015-04-25 09:17:00,
2015-04-25 05:22:00,50.9,31.4,29.93,West,267,0.0,0.0,47,0.00,OVC,,0.00,WeatherDisplay:10.37,2015-04-25 09:22:00,
2015-04-25 05:27:00,50.8,33.3,29.93,West,267,0.0,0.0,51,0.00,OVC,,0.00,WeatherDisplay:10.37,2015-04-25 09:27:00,
2015-04-25 05:32:00,50.6,31.1,29.93,West,267,0.0,0.0,47,0.00,OVC,,0.00,WeatherDisplay:10.37,2015-04-25 09:32:00,
2015-04-25 05:37:00,50.5,31.6,29.93,West,267,0.0,0.0,48,0.00,OVC,,0.00,WeatherDisplay:10.37,2015-04-25 09:37:00,
2015-04-25 05:42:00,50.4,31.5,29.93,West,267,0.0,0.0,48,0.00,OVC,,0.00,WeatherDisplay:10.37,2015-04-25 09:42:00,
2015-04-25 05:47:00,50.4,30.9,29.93,West,267,0.0,0.0,47,0.00,OVC,,0.00,WeatherDisplay:10.37,2015-04-25 09:47:00,
2015-04-25 05:52:00,50.4,30.4,29.93,ENE,69,1.2,1.2,46,0.00,OVC,,0.00,WeatherDisplay:10.37,2015-04-25 09:52:00,
2015-04-25 05:57:00,50.4,30.9,29.93,SSE,161,3.2,3.2,47,0.00,OVC,,0.00,WeatherDisplay:10.37,2015-04-25 09:57:00,
2015-04-25 06:02:00,50.3,30.9,29.93,SSE,155,3.5,3.5,47,0.00,OVC,,0.00,WeatherDisplay:10.37,2015-04-25 10:02:00,
2015-04-25 06:07:00,50.1,31.2,29.94,ENE,73,2.3,2.3,48,0.00,OVC,,0.00,WeatherDisplay:10.37,2015-04-25 10:07:00,
2015-04-25 06:12:00,50.2,30.2,29.94,ENE,73,0.0,0.0,46,0.00,OVC,,0.00,WeatherDisplay:10.37,2015-04-25 10:12:00,
2015-04-25 06:17:00,50.2,29.7,29.94,SE,134,2.3,2.3,45,0.00,OVC,,0.00,WeatherDisplay:10.37,2015-04-25 10:17:00,
2015-04-25 06:22:00,50.2,29.1,29.94,ESE,116,0.0,0.1,44,0.00,OVC,,0.00,WeatherDisplay:10.37,2015-04-25 10:22:00,
2015-04-25 06:27:00,50.1,29.0,29.94,SSW,203,1.2,1.2,44,0.00,OVC,,0.00,WeatherDisplay:10.37,2015-04-25 10:27:00,
2015-04-25 06:32:00,50.1,29.6,29.95,SE,124,2.3,2.3,45,0.00,OVC,,0.00,WeatherDisplay:10.37,2015-04-25 10:32:00,
2015-04-25 06:37:00,50.0,29.0,29.95,SE,138,4.6,4.6,44,0.00,OVC,,0.00,WeatherDisplay:10.37,2015-04-25 10:37:00,
2015-04-25 06:42:00,50.0,29.5,29.94,NE,42,3.5,3.5,45,0.00,OVC,,0.00,WeatherDisplay:10.37,2015-04-25 10:42:00,
2015-04-25 06:47:00,49.9,32.5,29.95,NE,47,1.4,1.4,51,0.00,OVC,,0.00,WeatherDisplay:10.37,2015-04-25 10:47:00,
2015-04-25 06:57:00,49.7,35.1,29.95,NE,44,0.0,0.0,57,0.00,OVC,,0.00,WeatherDisplay:10.37,2015-04-25 10:57:00,
2015-04-25 07:02:00,49.5,35.4,29.95,NE,44,0.0,0.0,58,0.01,-RA,,0.01,WeatherDisplay:10.37,2015-04-25 11:02:00,
2015-04-25 07:07:00,49.2,34.2,29.95,NE,47,1.2,1.2,56,0.01,-RA,,0.01,WeatherDisplay:10.37,2015-04-25 11:07:00,
2015-04-25 07:12:00,49.0,34.9,29.95,NE,47,0.0,0.0,58,0.01,-RA,,0.01,WeatherDisplay:10.37,2015-04-25 11:12:00,
2015-04-25 07:17:00,48.7,36.7,29.96,NE,47,0.0,0.0,63,0.02,-RA,,0.02,WeatherDisplay:10.37,2015-04-25 11:17:00,
2015-04-25 07:22:00,48.3,38.6,29.95,NE,47,0.0,0.0,69,0.02,-RA,,0.02,WeatherDisplay:10.37,2015-04-25 11:22:00,
2015-04-25 07:27:00,48.0,38.7,29.95,SE,140,1.2,1.2,70,0.03,-RA,,0.03,WeatherDisplay:10.37,2015-04-25 11:27:00,
2015-04-25 07:32:00,47.6,39.8,29.96,SE,130,0.0,0.0,74,0.03,-RA,,0.03,WeatherDisplay:10.37,2015-04-25 11:32:00,
2015-04-25 07:37:00,47.2,37.9,29.96,NE,37,1.2,1.2,70,0.03,-RA,,0.03,WeatherDisplay:10.37,2015-04-25 11:37:00,
2015-04-25 07:42:00,47.1,37.9,29.96,NE,37,0.0,0.0,70,0.03,-RA,,0.03,WeatherDisplay:10.37,2015-04-25 11:42:00,
2015-04-25 07:47:00,47.0,37.8,29.95,NE,41,2.3,2.3,70,0.04,-RA,,0.04,WeatherDisplay:10.37,2015-04-25 11:47:00,
2015-04-25 07:52:00,47.0,37.8,29.96,NE,34,1.2,1.2,70,0.04,-RA,,0.04,WeatherDisplay:10.37,2015-04-25 11:52:00,
2015-04-25 07:57:00,47.1,37.5,29.97,NE,40,1.2,1.2,69,0.04,-RA,,0.04,WeatherDisplay:10.37,2015-04-25 11:57:00,
2015-04-25 08:02:00,46.9,37.3,29.97,North,10,0.0,0.0,69,0.03,-RA,,0.04,WeatherDisplay:10.37,2015-04-25 12:02:00,
2015-04-25 08:07:00,47.1,37.9,29.97,NNE,25,2.3,2.3,70,0.03,-RA,,0.04,WeatherDisplay:10.37,2015-04-25 12:07:00,
2015-04-25 08:12:00,47.0,38.5,29.97,NNE,20,0.0,0.0,72,0.03,-RA,,0.04,WeatherDisplay:10.37,2015-04-25 12:12:00,
2015-04-25 08:17:00,47.2,40.1,29.97,NNE,20,0.0,0.0,76,0.02,-RA,,0.04,WeatherDisplay:10.37,2015-04-25 12:17:00,
2015-04-25 08:22:00,47.2,40.7,29.97,NNE,20,0.0,0.0,78,0.02,-RA,,0.04,WeatherDisplay:10.37,2015-04-25 12:22:00,
2015-04-25 08:27:00,47.3,41.8,29.96,NNE,20,0.0,0.0,81,0.01,-RA,,0.04,WeatherDisplay:10.37,2015-04-25 12:27:00,
2015-04-25 08:32:00,47.5,42.3,29.97,SE,136,2.3,2.3,82,0.01,-RA,,0.04,WeatherDisplay:10.37,2015-04-25 12:32:00,
2015-04-25 08:37:00,47.2,42.3,29.96,SSE,160,2.7,2.7,83,0.01,-RA,,0.04,WeatherDisplay:10.37,2015-04-25 12:37:00,
2015-04-25 08:42:00,46.7,41.8,29.96,SSE,167,3.5,3.5,83,0.01,-RA,,0.04,WeatherDisplay:10.37,2015-04-25 12:42:00,
2015-04-25 08:47:00,46.5,41.0,29.96,SSW,202,3.5,3.5,81,0.00,-RA,,0.04,WeatherDisplay:10.37,2015-04-25 12:47:00,
2015-04-25 08:52:00,46.6,41.4,29.96,South,184,0.0,0.0,82,0.00,-RA,,0.04,WeatherDisplay:10.37,2015-04-25 12:52:00,
2015-04-25 08:57:00,46.9,41.7,29.96,North,6,2.3,2.3,82,0.00,-RA,,0.04,WeatherDisplay:10.37,2015-04-25 12:57:00,
2015-04-25 09:02:00,47.1,41.9,29.95,NE,45,2.6,2.6,82,0.00,-RA,,0.04,WeatherDisplay:10.37,2015-04-25 13:02:00,
2015-04-25 09:07:00,47.1,41.3,29.96,NE,52,3.3,3.3,80,0.00,-RA,,0.04,WeatherDisplay:10.37,2015-04-25 13:07:00,
2015-04-25 09:12:00,47.0,41.2,29.95,NE,45,1.8,1.8,80,0.00,-RA,,0.04,WeatherDisplay:10.37,2015-04-25 13:12:00,
2015-04-25 09:17:00,46.9,40.8,29.95,ENE,62,4.6,4.6,79,0.00,-RA,,0.04,WeatherDisplay:10.37,2015-04-25 13:17:00,
2015-04-25 09:22:00,46.7,40.6,29.95,ENE,64,2.3,2.3,79,0.00,-RA,,0.05,WeatherDisplay:10.37,2015-04-25 13:22:00,
2015-04-25 09:27:00,46.4,39.6,29.95,NE,52,2.3,2.3,77,0.01,-RA,,0.05,WeatherDisplay:10.37,2015-04-25 13:27:00,
2015-04-25 09:32:00,46.3,39.9,29.95,NE,34,2.3,2.3,78,0.01,-RA,,0.05,WeatherDisplay:10.37,2015-04-25 13:32:00,
2015-04-25 09:37:00,46.3,40.2,29.95,NE,56,4.6,4.6,79,0.01,-RA,,0.05,WeatherDisplay:10.37,2015-04-25 13:37:00,
2015-04-25 09:42:00,46.1,39.3,29.95,NNE,23,1.2,1.2,77,0.01,-RA,,0.05,WeatherDisplay:10.37,2015-04-25 13:42:00,
2015-04-25 09:47:00,46.0,39.6,29.94,NNE,31,0.0,0.0,78,0.01,-RA,,0.05,WeatherDisplay:10.37,2015-04-25 13:47:00,
2015-04-25 09:52:00,46.2,40.1,29.94,NNE,31,0.0,0.0,79,0.01,-RA,,0.05,WeatherDisplay:10.37,2015-04-25 13:52:00,
2015-04-25 09:57:00,46.3,40.5,29.94,NE,49,0.0,0.0,80,0.01,-RA,,0.05,WeatherDisplay:10.37,2015-04-25 13:57:00,
2015-04-25 10:02:00,46.0,39.9,29.93,ESE,121,2.3,2.3,79,0.01,-RA,,0.05,WeatherDisplay:10.37,2015-04-25 14:02:00,
2015-04-25 10:07:00,45.9,40.1,29.93,SSW,200,4.0,4.0,80,0.01,-RA,,0.05,WeatherDisplay:10.37,2015-04-25 14:07:00,
2015-04-25 10:12:00,45.6,39.8,29.93,SSW,212,3.5,3.5,80,0.01,-RA,,0.05,WeatherDisplay:10.37,2015-04-25 14:12:00,
2015-04-25 10:17:00,45.6,40.1,29.92,SSE,154,4.6,4.6,81,0.01,-RA,,0.06,WeatherDisplay:10.37,2015-04-25 14:17:00,
2015-04-25 10:22:00,45.3,39.2,29.92,SE,137,6.9,6.9,79,0.02,-RA,,0.06,WeatherDisplay:10.37,2015-04-25 14:22:00,
2015-04-25 10:27:00,45.0,38.6,29.92,SSE,152,4.6,4.6,78,0.01,-RA,,0.06,WeatherDisplay:10.37,2015-04-25 14:27:00,
2015-04-25 10:32:00,44.9,39.1,29.93,NE,41,3.5,3.5,80,0.01,-RA,,0.06,WeatherDisplay:10.37,2015-04-25 14:32:00,
2015-04-25 10:37:00,45.0,38.9,29.93,East,82,2.3,2.3,79,0.01,-RA,,0.06,WeatherDisplay:10.37,2015-04-25 14:37:00,
2015-04-25 10:42:00,45.0,39.2,29.93,NE,38,0.0,0.0,80,0.01,-RA,,0.06,WeatherDisplay:10.37,2015-04-25 14:42:00,
2015-04-25 10:47:00,45.0,39.2,29.93,SSW,195,4.6,4.6,80,0.01,-RA,,0.06,WeatherDisplay:10.37,2015-04-25 14:47:00,
2015-04-25 10:52:00,45.0,39.2,29.93,South,175,4.7,4.7,80,0.01,-RA,,0.06,WeatherDisplay:10.37,2015-04-25 14:52:00,
2015-04-25 10:57:00,44.9,39.1,29.93,SSE,158,2.3,2.3,80,0.01,-RA,,0.06,WeatherDisplay:10.37,2015-04-25 14:57:00,
2015-04-25 11:02:00,44.8,39.0,29.93,ESE,117,3.5,3.5,80,0.01,OVC,,0.06,WeatherDisplay:10.37,2015-04-25 15:02:00,
2015-04-25 11:07:00,44.8,39.0,29.91,SE,145,9.2,9.2,80,0.01,OVC,,0.06,WeatherDisplay:10.37,2015-04-25 15:07:00,
2015-04-25 11:12:00,44.7,39.6,29.88,SE,141,11.5,11.5,82,0.01,OVC,,0.06,WeatherDisplay:10.37,2015-04-25 15:12:00,
2015-04-25 11:17:00,44.6,39.8,29.91,ENE,64,4.6,4.6,83,0.01,OVC,,0.06,WeatherDisplay:10.37,2015-04-25 15:17:00,
2015-04-25 11:22:00,44.4,39.0,29.93,South,184,3.5,3.5,81,0.00,OVC,,0.06,WeatherDisplay:10.37,2015-04-25 15:22:00,
2015-04-25 11:27:00,44.5,39.4,29.93,ENE,64,0.0,0.0,82,0.00,OVC,,0.06,WeatherDisplay:10.37,2015-04-25 15:27:00,
2015-04-25 11:32:00,44.9,39.8,29.93,ENE,66,2.3,2.3,82,0.00,OVC,,0.06,WeatherDisplay:10.37,2015-04-25 15:32:00,
2015-04-25 11:37:00,44.9,39.5,29.93,ESE,113,2.3,2.3,81,0.00,OVC,,0.06,WeatherDisplay:10.37,2015-04-25 15:37:00,
2015-04-25 11:42:00,44.9,39.8,29.93,ENE,71,1.2,0.0,82,0.00,OVC,,0.06,WeatherDisplay:10.37,2015-04-25 15:42:00,
2015-04-25 11:47:00,45.1,40.3,29.93,SSE,164,3.5,3.5,83,0.00,OVC,,0.06,WeatherDisplay:10.37,2015-04-25 15:47:00,
2015-04-25 11:52:00,44.8,40.3,29.93,SSE,162,6.9,6.9,84,0.00,OVC,,0.06,WeatherDisplay:10.37,2015-04-25 15:52:00,
2015-04-25 11:57:00,44.6,40.1,29.93,SSE,164,5.8,5.8,84,0.00,OVC,,0.07,WeatherDisplay:10.37,2015-04-25 15:57:00,
2015-04-25 12:02:00,44.6,39.8,29.93,SSE,168,8.1,8.1,83,0.01,RA,,0.07,WeatherDisplay:10.37,2015-04-25 16:02:00,
2015-04-25 12:07:00,44.4,39.3,29.93,SE,133,5.8,5.8,82,0.01,RA,,0.07,WeatherDisplay:10.37,2015-04-25 16:07:00,
2015-04-25 12:12:00,44.6,40.1,29.92,NE,56,2.3,2.3,84,0.01,OVC,,0.07,WeatherDisplay:10.37,2015-04-25 16:12:00,
2015-04-25 12:17:00,44.4,39.9,29.91,SE,141,3.5,3.5,84,0.01,OVC,,0.07,WeatherDisplay:10.37,2015-04-25 16:17:00,
2015-04-25 12:22:00,44.5,40.3,29.90,SSE,165,8.2,8.2,85,0.02,RA,,0.08,WeatherDisplay:10.37,2015-04-25 16:22:00,
2015-04-25 12:27:00,44.4,39.9,29.90,SSE,148,6.9,6.9,84,0.02,RA,,0.08,WeatherDisplay:10.37,2015-04-25 16:27:00,
2015-04-25 12:32:00,44.4,39.9,29.90,SE,137,8.1,8.1,84,0.02,OVC,,0.08,WeatherDisplay:10.37,2015-04-25 16:32:00,
2015-04-25 12:37:00,44.5,40.6,29.89,SE,140,4.2,4.2,86,0.02,OVC,,0.08,WeatherDisplay:10.37,2015-04-25 16:37:00,
2015-04-25 12:42:00,45.0,40.8,29.88,SSE,160,3.5,3.5,85,0.02,OVC,,0.08,WeatherDisplay:10.37,2015-04-25 16:42:00,
2015-04-25 12:47:00,44.9,40.4,29.88,SW,234,5.8,5.8,84,0.02,OVC,,0.08,WeatherDisplay:10.37,2015-04-25 16:47:00,
2015-04-25 12:52:00,44.8,40.3,29.88,SSE,168,5.8,5.8,84,0.02,OVC,,0.08,WeatherDisplay:10.37,2015-04-25 16:52:00,
2015-04-25 12:57:00,44.8,40.0,29.88,SSE,164,5.8,5.8,83,0.02,OVC,,0.08,WeatherDisplay:10.37,2015-04-25 16:57:00,
2015-04-25 13:02:00,44.7,39.9,29.87,SSE,154,11.5,11.5,83,0.01,-RA,,0.08,WeatherDisplay:10.37,2015-04-25 17:02:00,
2015-04-25 13:07:00,44.5,39.4,29.87,South,172,8.1,8.1,82,0.01,-RA,,0.08,WeatherDisplay:10.37,2015-04-25 17:07:00,
2015-04-25 13:12:00,44.2,38.8,29.87,SSE,162,5.8,5.8,81,0.01,-RA,,0.08,WeatherDisplay:10.37,2015-04-25 17:12:00,
2015-04-25 13:17:00,44.2,38.8,29.87,SSE,152,9.2,9.2,81,0.01,-RA,,0.08,WeatherDisplay:10.37,2015-04-25 17:17:00,
2015-04-25 13:22:00,44.2,39.1,29.86,East,85,4.6,4.6,82,0.00,-RA,,0.08,WeatherDisplay:10.37,2015-04-25 17:22:00,
2015-04-25 13:27:00,44.3,39.2,29.86,South,178,6.9,6.9,82,0.00,-RA,,0.08,WeatherDisplay:10.37,2015-04-25 17:27:00,
2015-04-25 13:32:00,44.4,39.3,29.86,ESE,114,0.0,0.0,82,0.00,-RA,,0.08,WeatherDisplay:10.37,2015-04-25 17:32:00,
2015-04-25 13:37:00,44.5,39.7,29.86,SSE,154,8.9,8.9,83,0.00,-RA,,0.08,WeatherDisplay:10.37,2015-04-25 17:37:00,
2015-04-25 13:42:00,44.3,39.2,29.85,SSE,164,12.7,12.7,82,0.00,-RA,,0.08,WeatherDisplay:10.37,2015-04-25 17:42:00,
2015-04-25 13:47:00,43.9,38.5,29.85,SSW,210,8.1,8.1,81,0.00,-RA,,0.08,WeatherDisplay:10.37,2015-04-25 17:47:00,
2015-04-25 13:52:00,43.8,38.7,29.86,SSW,210,1.2,1.4,82,0.00,-RA,,0.08,WeatherDisplay:10.37,2015-04-25 17:52:00,
2015-04-25 13:57:00,43.7,38.9,29.84,SE,138,8.1,8.1,83,0.01,-RA,,0.09,WeatherDisplay:10.37,2015-04-25 17:57:00,
2015-04-25 14:02:00,43.8,39.6,29.84,SSE,165,5.8,5.8,85,0.01,RA,,0.09,WeatherDisplay:10.37,2015-04-25 18:02:00,
2015-04-25 14:07:00,43.8,39.9,29.85,South,174,6.9,6.9,86,0.01,OVC,,0.09,WeatherDisplay:10.37,2015-04-25 18:07:00,
2015-04-25 14:12:00,43.7,39.8,29.84,ESE,104,3.5,3.5,86,0.01,OVC,,0.09,WeatherDisplay:10.37,2015-04-25 18:12:00,
2015-04-25 14:18:00,43.7,39.8,29.83,SSE,167,5.8,5.8,86,0.01,OVC,,0.09,WeatherDisplay:10.37,2015-04-25 18:18:00,
2015-04-25 14:23:00,43.5,39.6,29.83,SSE,161,6.9,6.9,86,0.01,OVC,,0.09,WeatherDisplay:10.37,2015-04-25 18:23:00,
2015-04-25 14:28:00,43.6,39.7,29.83,SSE,147,3.5,3.5,86,0.01,OVC,,0.09,WeatherDisplay:10.37,2015-04-25 18:28:00,
2015-04-25 14:33:00,43.7,40.1,29.83,SSW,210,5.8,5.8,87,0.01,OVC,,0.09,WeatherDisplay:10.37,2015-04-25 18:33:00,
2015-04-25 14:38:00,43.6,40.3,29.81,SE,137,7.7,7.7,88,0.02,RA,,0.10,WeatherDisplay:10.37,2015-04-25 18:38:00,
2015-04-25 14:43:00,43.7,40.7,29.81,SE,127,6.9,7.2,89,0.02,RA,,0.10,WeatherDisplay:10.37,2015-04-25 18:43:00,
2015-04-25 14:48:00,43.3,40.0,29.80,SSE,147,5.8,5.8,88,0.02,OVC,,0.10,WeatherDisplay:10.37,2015-04-25 18:48:00,
2015-04-25 14:53:00,43.2,40.2,29.81,SSW,205,6.9,6.9,89,0.02,OVC,,0.10,WeatherDisplay:10.37,2015-04-25 18:53:00,
2015-04-25 14:58:00,43.2,40.2,29.81,ESE,104,3.5,3.5,89,0.01,OVC,,0.10,WeatherDisplay:10.37,2015-04-25 18:58:00,
2015-04-25 15:03:00,43.1,40.1,29.81,SSE,161,9.2,9.2,89,0.01,-RA,,0.10,WeatherDisplay:10.37,2015-04-25 19:03:00,
2015-04-25 15:08:00,43.1,40.4,29.81,ESE,123,5.8,5.8,90,0.01,-RA,,0.10,WeatherDisplay:10.37,2015-04-25 19:08:00,
2015-04-25 15:18:00,43.0,40.3,29.80,SSE,158,6.9,6.9,90,0.01,-RA,,0.10,WeatherDisplay:10.37,2015-04-25 19:18:00,
2015-04-25 15:23:00,42.7,40.0,29.80,SE,134,8.1,8.1,90,0.01,-RA,,0.10,WeatherDisplay:10.37,2015-04-25 19:23:00,
2015-04-25 15:28:00,42.3,39.6,29.79,SSE,168,12.7,12.7,90,0.01,-RA,,0.10,WeatherDisplay:10.37,2015-04-25 19:28:00,
2015-04-25 15:33:00,41.9,39.8,29.78,South,169,6.9,6.9,92,0.01,-RA,,0.10,WeatherDisplay:10.37,2015-04-25 19:33:00,
2015-04-25 15:38:00,41.8,39.7,29.79,SSE,152,9.2,9.2,92,0.00,-RA,,0.10,WeatherDisplay:10.37,2015-04-25 19:38:00,
2015-04-25 15:43:00,41.8,39.7,29.78,SSE,152,8.1,8.1,92,0.00,-RA,,0.10,WeatherDisplay:10.37,2015-04-25 19:43:00,
2015-04-25 15:48:00,41.7,39.6,29.78,ENE,75,5.8,5.8,92,0.00,-RA,,0.10,WeatherDisplay:10.37,2015-04-25 19:48:00,
2015-04-25 15:53:00,41.8,40.0,29.78,SSE,148,5.8,5.8,93,0.00,-RA,,0.10,WeatherDisplay:10.37,2015-04-25 19:53:00,
2015-04-25 15:58:00,41.9,40.1,29.78,SSE,158,8.1,8.1,93,0.00,-RA,,0.10,WeatherDisplay:10.37,2015-04-25 19:58:00,
2015-04-25 16:03:00,42.0,39.9,29.78,SSE,155,6.9,6.9,92,0.00,-RA,,0.10,WeatherDisplay:10.37,2015-04-25 20:03:00,
2015-04-25 16:08:00,41.9,39.8,29.78,SSE,155,9.2,9.2,92,0.00,-RA,,0.10,WeatherDisplay:10.37,2015-04-25 20:08:00,
2015-04-25 16:13:00,41.9,39.8,29.78,SSE,160,5.8,5.8,92,0.00,-RA,,0.10,WeatherDisplay:10.37,2015-04-25 20:13:00,
2015-04-25 16:18:00,42.1,40.0,29.77,SSE,160,8.1,8.1,92,0.00,-RA,,0.10,WeatherDisplay:10.37,2015-04-25 20:18:00,
2015-04-25 16:23:00,42.3,40.2,29.77,WSW,253,5.8,5.8,92,0.00,-RA,,0.10,WeatherDisplay:10.37,2015-04-25 20:23:00,
2015-04-25 16:28:00,42.3,40.5,29.77,SSE,154,4.6,4.6,93,0.00,-RA,,0.10,WeatherDisplay:10.37,2015-04-25 20:28:00,
2015-04-25 16:33:00,42.1,40.3,29.77,SSE,165,5.8,5.8,93,0.00,-RA,,0.10,WeatherDisplay:10.37,2015-04-25 20:33:00,
2015-04-25 16:38:00,42.0,40.2,29.77,SE,131,9.2,9.2,93,0.00,-RA,,0.10,WeatherDisplay:10.37,2015-04-25 20:38:00,
2015-04-25 16:43:00,41.5,39.9,29.77,SE,133,5.8,5.8,94,0.00,-RA,,0.10,WeatherDisplay:10.37,2015-04-25 20:43:00,
2015-04-25 16:48:00,41.2,39.6,29.77,SE,133,10.4,10.4,94,0.00,-RA,,0.10,WeatherDisplay:10.37,2015-04-25 20:48:00,
2015-04-25 16:53:00,40.9,39.6,29.77,SSE,157,4.9,4.9,95,0.00,-RA,,0.10,WeatherDisplay:10.37,2015-04-25 20:53:00,
2015-04-25 16:58:00,40.9,39.6,29.77,South,169,4.6,4.6,95,0.00,-RA,,0.10,WeatherDisplay:10.37,2015-04-25 20:58:00,
2015-04-25 17:03:00,41.0,39.7,29.76,East,95,10.4,10.4,95,0.00,OVC,,0.10,WeatherDisplay:10.37,2015-04-25 21:03:00,
2015-04-25 17:08:00,40.9,39.9,29.76,SSE,157,5.8,5.8,96,0.00,OVC,,0.10,WeatherDisplay:10.37,2015-04-25 21:08:00,
2015-04-25 17:13:00,40.6,39.6,29.76,South,174,6.9,6.9,96,0.00,OVC,,0.10,WeatherDisplay:10.37,2015-04-25 21:13:00,
2015-04-25 17:18:00,40.7,39.7,29.76,East,95,10.4,10.4,96,0.00,OVC,,0.10,WeatherDisplay:10.37,2015-04-25 21:18:00,
2015-04-25 17:23:00,40.5,39.5,29.76,South,191,9.2,9.2,96,0.00,OVC,,0.10,WeatherDisplay:10.37,2015-04-25 21:23:00,
2015-04-25 17:28:00,40.6,39.6,29.75,ENE,69,8.1,8.1,96,0.00,OVC,,0.10,WeatherDisplay:10.37,2015-04-25 21:28:00,
2015-04-25 17:33:00,40.7,39.7,29.74,SSE,155,9.2,9.2,96,0.00,OVC,,0.10,WeatherDisplay:10.37,2015-04-25 21:33:00,
2015-04-25 17:38:00,40.5,39.5,29.75,SSE,168,8.1,8.1,96,0.00,OVC,,0.10,WeatherDisplay:10.37,2015-04-25 21:38:00,
2015-04-25 17:43:00,40.4,39.4,29.75,SE,130,1.2,0.0,96,0.00,OVC,,0.10,WeatherDisplay:10.37,2015-04-25 21:43:00,
2015-04-25 17:48:00,40.7,39.7,29.74,SSE,167,5.8,5.8,96,0.00,OVC,,0.10,WeatherDisplay:10.37,2015-04-25 21:48:00,
2015-04-25 17:53:00,41.0,40.0,29.73,SSW,196,3.5,3.5,96,0.00,OVC,,0.10,WeatherDisplay:10.37,2015-04-25 21:53:00,
2015-04-25 17:58:00,41.0,40.0,29.73,SSE,158,5.8,5.8,96,0.00,OVC,,0.10,WeatherDisplay:10.37,2015-04-25 21:58:00,
2015-04-25 18:03:00,41.1,40.1,29.73,SE,128,0.0,0.0,96,0.00,OVC,,0.10,WeatherDisplay:10.37,2015-04-25 22:03:00,
2015-04-25 18:08:00,40.9,39.9,29.73,NNE,27,2.3,2.3,96,0.00,OVC,,0.10,WeatherDisplay:10.37,2015-04-25 22:08:00,
2015-04-25 18:13:00,40.9,40.2,29.73,SSW,192,4.6,4.6,97,0.00,OVC,,0.10,WeatherDisplay:10.37,2015-04-25 22:13:00,
2015-04-25 18:18:00,40.7,40.0,29.73,East,79,3.5,3.5,97,0.00,OVC,,0.10,WeatherDisplay:10.37,2015-04-25 22:18:00,
2015-04-25 18:23:00,40.9,40.2,29.73,SSW,195,1.2,1.2,97,0.00,OVC,,0.10,WeatherDisplay:10.37,2015-04-25 22:23:00,
2015-04-25 18:28:00,40.9,40.2,29.73,South,175,5.8,5.8,97,0.00,OVC,,0.10,WeatherDisplay:10.37,2015-04-25 22:28:00,
2015-04-25 18:38:00,40.6,39.9,29.72,East,85,5.4,5.4,97,0.00,OVC,,0.10,WeatherDisplay:10.37,2015-04-25 22:38:00,
2015-04-25 18:43:00,40.6,39.9,29.72,SSE,147,0.0,0.0,97,0.00,OVC,,0.10,WeatherDisplay:10.37,2015-04-25 22:43:00,
2015-04-25 18:48:00,40.5,39.8,29.72,SE,133,6.7,6.7,97,0.00,OVC,,0.10,WeatherDisplay:10.37,2015-04-25 22:48:00,
2015-04-25 18:53:00,40.4,39.7,29.72,SSW,205,6.9,6.9,97,0.00,OVC,,0.10,WeatherDisplay:10.37,2015-04-25 22:53:00,
2015-04-25 18:58:00,40.4,39.7,29.71,SE,133,6.9,6.9,97,0.00,OVC,,0.10,WeatherDisplay:10.37,2015-04-25 22:58:00,
2015-04-25 19:03:00,40.2,39.5,29.71,SSE,162,5.9,5.9,97,0.00,OVC,,0.10,WeatherDisplay:10.37,2015-04-25 23:03:00,
2015-04-25 19:08:00,40.3,39.6,29.70,SSE,165,8.2,8.2,97,0.00,OVC,,0.10,WeatherDisplay:10.37,2015-04-25 23:08:00,
2015-04-25 19:13:00,40.1,39.4,29.71,SSE,160,6.9,6.9,97,0.00,OVC,,0.10,WeatherDisplay:10.37,2015-04-25 23:13:00,
2015-04-25 19:18:00,40.1,39.4,29.71,ENE,61,3.5,3.5,97,0.00,OVC,,0.10,WeatherDisplay:10.37,2015-04-25 23:18:00,
2015-04-25 19:23:00,40.2,39.5,29.71,East,89,0.0,0.0,97,0.00,OVC,,0.10,WeatherDisplay:10.37,2015-04-25 23:23:00,
2015-04-25 19:28:00,40.3,39.6,29.70,East,89,0.0,0.0,97,0.00,OVC,,0.11,WeatherDisplay:10.37,2015-04-25 23:28:00,
2015-04-25 19:33:00,40.5,39.8,29.71,East,89,0.0,0.0,97,0.01,RA,,0.11,WeatherDisplay:10.37,2015-04-25 23:33:00,
2015-04-25 19:38:00,40.6,39.9,29.71,ENE,78,1.2,1.2,97,0.01,RA,,0.11,WeatherDisplay:10.37,2015-04-25 23:38:00,
2015-04-25 19:43:00,40.5,39.8,29.71,NE,40,2.3,2.3,97,0.01,OVC,,0.11,WeatherDisplay:10.37,2015-04-25 23:43:00,
2015-04-25 19:48:00,40.5,39.8,29.71,ESE,106,3.5,3.5,97,0.01,OVC,,0.11,WeatherDisplay:10.37,2015-04-25 23:48:00,
2015-04-25 19:53:00,40.8,40.1,29.70,NE,56,0.0,0.0,97,0.01,OVC,,0.11,WeatherDisplay:10.37,2015-04-25 23:53:00,
2015-04-25 19:58:00,40.9,40.2,29.69,NE,56,0.0,0.0,97,0.01,OVC,,0.11,WeatherDisplay:10.37,2015-04-25 23:58:00,
2015-04-25 20:03:00,40.9,40.2,29.69,ENE,61,5.8,5.8,97,0.01,OVC,,0.11,WeatherDisplay:10.37,2015-04-26 00:03:00,
2015-04-25 20:08:00,40.7,40.0,29.69,SE,126,3.7,3.7,97,0.01,OVC,,0.11,WeatherDisplay:10.37,2015-04-26 00:08:00,
2015-04-25 20:13:00,40.6,39.9,29.70,East,86,0.0,0.0,97,0.01,OVC,,0.11,WeatherDisplay:10.37,2015-04-26 00:13:00,
2015-04-25 20:18:00,40.6,39.9,29.70,East,86,0.0,0.0,97,0.01,OVC,,0.11,WeatherDisplay:10.37,2015-04-26 00:18:00,
2015-04-25 20:23:00,40.5,39.8,29.70,East,92,4.6,4.6,97,0.01,OVC,,0.11,WeatherDisplay:10.37,2015-04-26 00:23:00,
2015-04-25 20:28:00,40.6,39.9,29.69,East,88,3.5,3.5,97,0.01,OVC,,0.11,WeatherDisplay:10.37,2015-04-26 00:28:00,
2015-04-25 20:33:00,40.6,39.9,29.69,South,188,2.4,2.4,97,0.00,OVC,,0.11,WeatherDisplay:10.37,2015-04-26 00:33:00,